sensor_id;sensor_type;location;lat;lon;timestamp;pressure;altitude;pressure_sealevel;temperature;humidity
39275;BME280;24980;48.874;2.332;2024-03-23T00:52:34;101057.48;;;26.82;43.82
39275;BME280;24980;48.874;2.332;2024-03-23T00:55:04;101057.83;;;26.81;43.83
39275;BME280;24980;48.874;2.332;2024-03-23T00:57:34;101057.88;;;26.81;43.82
39275;BME280;24980;48.874;2.332;2024-03-23T01:00:05;101059.58;;;26.81;43.82
39275;BME280;24980;48.874;2.332;2024-03-23T01:02:35;101060.78;;;26.79;43.81
39275;BME280;24980;48.874;2.332;2024-03-23T01:05:06;101071.63;;;26.77;43.82
39275;BME280;24980;48.874;2.332;2024-03-23T01:07:36;101065.11;;;26.76;43.83
39275;BME280;24980;48.874;2.332;2024-03-23T01:10:07;101059.68;;;26.76;43.82
39275;BME280;24980;48.874;2.332;2024-03-23T01:12:37;101062.91;;;26.76;43.82
39275;BME280;24980;48.874;2.332;2024-03-23T01:15:07;101060.61;;;26.76;43.82
39275;BME280;24980;48.874;2.332;2024-03-23T01:17:38;101061.04;;;26.76;43.81
39275;BME280;24980;48.874;2.332;2024-03-23T01:20:08;101080.02;;;26.75;43.82
39275;BME280;24980;48.874;2.332;2024-03-23T01:22:39;101073.34;;;26.74;43.86
39275;BME280;24980;48.874;2.332;2024-03-23T01:25:09;101077.60;;;26.74;43.86
39275;BME280;24980;48.874;2.332;2024-03-23T01:27:39;101077.62;;;26.73;43.85
39275;BME280;24980;48.874;2.332;2024-03-23T01:30:10;101076.70;;;26.72;43.87
39275;BME280;24980;48.874;2.332;2024-03-23T01:32:40;101074.48;;;26.72;43.89
39275;BME280;24980;48.874;2.332;2024-03-23T01:35:10;101072.50;;;26.71;43.90
39275;BME280;24980;48.874;2.332;2024-03-23T01:37:40;101069.71;;;26.70;43.91
39275;BME280;24980;48.874;2.332;2024-03-23T01:40:11;101065.73;;;26.69;43.92
39275;BME280;24980;48.874;2.332;2024-03-23T01:42:40;101063.36;;;26.69;43.92
39275;BME280;24980;48.874;2.332;2024-03-23T01:45:11;101066.59;;;26.69;43.91
39275;BME280;24980;48.874;2.332;2024-03-23T01:47:43;101068.72;;;26.69;43.91
39275;BME280;24980;48.874;2.332;2024-03-23T01:50:12;101070.51;;;26.69;43.90
39275;BME280;24980;48.874;2.332;2024-03-23T01:52:42;101069.33;;;26.68;43.89
39275;BME280;24980;48.874;2.332;2024-03-23T01:55:13;101073.20;;;26.67;43.88
39275;BME280;24980;48.874;2.332;2024-03-23T01:57:43;101076.88;;;26.67;43.86
39275;BME280;24980;48.874;2.332;2024-03-23T02:00:13;101084.02;;;26.67;43.86
39275;BME280;24980;48.874;2.332;2024-03-23T02:02:44;101081.89;;;26.66;43.85
39275;BME280;24980;48.874;2.332;2024-03-23T02:05:15;101074.13;;;26.65;43.84
39275;BME280;24980;48.874;2.332;2024-03-23T02:07:46;101070.59;;;26.63;43.83
39275;BME280;24980;48.874;2.332;2024-03-23T02:10:15;101077.33;;;26.63;43.84
39275;BME280;24980;48.874;2.332;2024-03-23T02:12:46;101076.74;;;26.62;43.84
39275;BME280;24980;48.874;2.332;2024-03-23T02:15:17;101081.12;;;26.61;43.84
39275;BME280;24980;48.874;2.332;2024-03-23T02:17:46;101087.61;;;26.60;43.84
39275;BME280;24980;48.874;2.332;2024-03-23T02:20:17;101086.17;;;26.60;43.84
39275;BME280;24980;48.874;2.332;2024-03-23T02:22:52;101088.22;;;26.59;43.83
39275;BME280;24980;48.874;2.332;2024-03-23T02:25:17;101086.78;;;26.59;43.83
39275;BME280;24980;48.874;2.332;2024-03-23T02:27:48;101090.48;;;26.58;43.83
39275;BME280;24980;48.874;2.332;2024-03-23T02:30:18;101100.27;;;26.58;43.82
39275;BME280;24980;48.874;2.332;2024-03-23T02:32:49;101094.50;;;26.57;43.80
39275;BME280;24980;48.874;2.332;2024-03-23T02:35:19;101097.14;;;26.56;43.79
39275;BME280;24980;48.874;2.332;2024-03-23T02:37:49;101095.08;;;26.55;43.79
39275;BME280;24980;48.874;2.332;2024-03-23T02:40:20;101095.43;;;26.55;43.78
39275;BME280;24980;48.874;2.332;2024-03-23T02:42:50;101100.19;;;26.55;43.77
39275;BME280;24980;48.874;2.332;2024-03-23T02:45:21;101094.94;;;26.54;43.77
39275;BME280;24980;48.874;2.332;2024-03-23T02:47:51;101093.77;;;26.53;43.77
39275;BME280;24980;48.874;2.332;2024-03-23T02:50:21;101098.11;;;26.52;43.81
39275;BME280;24980;48.874;2.332;2024-03-23T02:52:51;101097.73;;;26.52;43.78
39275;BME280;24980;48.874;2.332;2024-03-23T02:55:22;101104.12;;;26.50;43.79
39275;BME280;24980;48.874;2.332;2024-03-23T02:57:52;101099.97;;;26.50;43.78
39275;BME280;24980;48.874;2.332;2024-03-23T03:00:22;101107.27;;;26.50;43.78
39275;BME280;24980;48.874;2.332;2024-03-23T03:02:55;101107.70;;;26.50;43.78
39275;BME280;24980;48.874;2.332;2024-03-23T03:05:23;101106.94;;;26.50;43.78
39275;BME280;24980;48.874;2.332;2024-03-23T03:07:53;101111.45;;;26.50;43.76
39275;BME280;24980;48.874;2.332;2024-03-23T03:10:26;101129.73;;;26.49;43.76
39275;BME280;24980;48.874;2.332;2024-03-23T03:12:54;101123.23;;;26.49;43.75
39275;BME280;24980;48.874;2.332;2024-03-23T03:15:27;101122.22;;;26.48;43.74
39275;BME280;24980;48.874;2.332;2024-03-23T03:17:54;101122.64;;;26.49;43.73
39275;BME280;24980;48.874;2.332;2024-03-23T03:20:24;101123.75;;;26.48;43.72
39275;BME280;24980;48.874;2.332;2024-03-23T03:22:55;101124.02;;;26.48;43.71
39275;BME280;24980;48.874;2.332;2024-03-23T03:25:26;101133.77;;;26.49;43.68
39275;BME280;24980;48.874;2.332;2024-03-23T03:27:56;101128.55;;;26.49;43.65
39275;BME280;24980;48.874;2.332;2024-03-23T03:30:26;101125.61;;;26.49;43.65
39275;BME280;24980;48.874;2.332;2024-03-23T03:32:57;101118.00;;;26.49;43.65
39275;BME280;24980;48.874;2.332;2024-03-23T03:35:27;101118.86;;;26.49;43.64
39275;BME280;24980;48.874;2.332;2024-03-23T03:37:57;101123.48;;;26.49;43.64
39275;BME280;24980;48.874;2.332;2024-03-23T03:40:27;101125.70;;;26.48;43.62
39275;BME280;24980;48.874;2.332;2024-03-23T03:43:02;101137.94;;;26.49;43.60
39275;BME280;24980;48.874;2.332;2024-03-23T03:45:27;101137.05;;;26.49;43.58
39275;BME280;24980;48.874;2.332;2024-03-23T03:47:58;101139.94;;;26.49;43.56
39275;BME280;24980;48.874;2.332;2024-03-23T03:50:28;101147.84;;;26.49;43.56
39275;BME280;24980;48.874;2.332;2024-03-23T03:52:58;101151.05;;;26.50;43.54
39275;BME280;24980;48.874;2.332;2024-03-23T03:55:28;101149.09;;;26.51;43.53
39275;BME280;24980;48.874;2.332;2024-03-23T03:57:58;101154.61;;;26.51;43.54
39275;BME280;24980;48.874;2.332;2024-03-23T04:00:29;101154.69;;;26.51;43.54
39275;BME280;24980;48.874;2.332;2024-03-23T04:03:00;101159.72;;;26.50;43.53
39275;BME280;24980;48.874;2.332;2024-03-23T04:05:31;101161.34;;;26.50;43.53
39275;BME280;24980;48.874;2.332;2024-03-23T04:08:00;101159.98;;;26.50;43.53
39275;BME280;24980;48.874;2.332;2024-03-23T04:10:30;101162.28;;;26.50;43.53
39275;BME280;24980;48.874;2.332;2024-03-23T04:13:00;101160.57;;;26.50;43.53
39275;BME280;24980;48.874;2.332;2024-03-23T04:15:31;101157.84;;;26.51;43.52
39275;BME280;24980;48.874;2.332;2024-03-23T04:18:02;101161.23;;;26.51;43.50
39275;BME280;24980;48.874;2.332;2024-03-23T04:20:32;101159.62;;;26.51;43.49
39275;BME280;24980;48.874;2.332;2024-03-23T04:23:02;101161.30;;;26.52;43.49
39275;BME280;24980;48.874;2.332;2024-03-23T04:25:32;101158.59;;;26.52;43.47
39275;BME280;24980;48.874;2.332;2024-03-23T04:28:03;101156.90;;;26.51;43.46
39275;BME280;24980;48.874;2.332;2024-03-23T04:30:34;101156.73;;;26.51;43.46
39275;BME280;24980;48.874;2.332;2024-03-23T04:33:04;101161.08;;;26.50;43.46
39275;BME280;24980;48.874;2.332;2024-03-23T04:35:35;101166.68;;;26.51;43.45
39275;BME280;24980;48.874;2.332;2024-03-23T04:38:05;101173.63;;;26.52;43.45
39275;BME280;24980;48.874;2.332;2024-03-23T04:40:35;101172.45;;;26.51;43.43
39275;BME280;24980;48.874;2.332;2024-03-23T04:43:05;101176.44;;;26.52;43.43
39275;BME280;24980;48.874;2.332;2024-03-23T04:45:35;101176.70;;;26.52;43.43
39275;BME280;24980;48.874;2.332;2024-03-23T04:48:06;101178.30;;;26.52;43.42
39275;BME280;24980;48.874;2.332;2024-03-23T04:50:36;101178.86;;;26.52;43.42
39275;BME280;24980;48.874;2.332;2024-03-23T04:53:08;101189.22;;;26.53;43.39
39275;BME280;24980;48.874;2.332;2024-03-23T04:55:38;101189.98;;;26.53;43.38
39275;BME280;24980;48.874;2.332;2024-03-23T04:58:08;101193.95;;;26.52;43.37
39275;BME280;24980;48.874;2.332;2024-03-23T05:00:38;101201.95;;;26.52;43.37
39275;BME280;24980;48.874;2.332;2024-03-23T05:03:08;101198.05;;;26.51;43.37
39275;BME280;24980;48.874;2.332;2024-03-23T05:05:39;101208.08;;;26.51;43.37
39275;BME280;24980;48.874;2.332;2024-03-23T05:08:09;101209.94;;;26.52;43.36
39275;BME280;24980;48.874;2.332;2024-03-23T05:10:41;101211.98;;;26.51;43.35
39275;BME280;24980;48.874;2.332;2024-03-23T05:13:10;101207.83;;;26.51;43.35
39275;BME280;24980;48.874;2.332;2024-03-23T05:15:40;101210.64;;;26.50;43.35
39275;BME280;24980;48.874;2.332;2024-03-23T05:18:10;101212.68;;;26.50;43.35
39275;BME280;24980;48.874;2.332;2024-03-23T05:20:43;101216.41;;;26.51;43.33
39275;BME280;24980;48.874;2.332;2024-03-23T05:23:11;101213.27;;;26.51;43.31
39275;BME280;24980;48.874;2.332;2024-03-23T05:25:42;101225.44;;;26.50;43.32
39275;BME280;24980;48.874;2.332;2024-03-23T05:28:12;101223.22;;;26.50;43.31
39275;BME280;24980;48.874;2.332;2024-03-23T05:30:42;101226.63;;;26.50;43.30
39275;BME280;24980;48.874;2.332;2024-03-23T05:33:12;101227.22;;;26.50;43.29
39275;BME280;24980;48.874;2.332;2024-03-23T05:35:43;101230.28;;;26.50;43.27
39275;BME280;24980;48.874;2.332;2024-03-23T05:38:15;101231.12;;;26.51;43.27
39275;BME280;24980;48.874;2.332;2024-03-23T05:40:54;101228.82;;;26.51;43.24
39275;BME280;24980;48.874;2.332;2024-03-23T05:43:14;101232.58;;;26.53;43.21
39275;BME280;24980;48.874;2.332;2024-03-23T05:45:44;101235.09;;;26.52;43.20
39275;BME280;24980;48.874;2.332;2024-03-23T05:48:15;101232.55;;;26.52;43.19
39275;BME280;24980;48.874;2.332;2024-03-23T05:50:45;101232.48;;;26.51;43.17
39275;BME280;24980;48.874;2.332;2024-03-23T05:53:16;101233.48;;;26.52;43.17
39275;BME280;24980;48.874;2.332;2024-03-23T05:55:49;101242.33;;;26.51;43.15
39275;BME280;24980;48.874;2.332;2024-03-23T05:58:17;101243.87;;;26.51;43.15
39275;BME280;24980;48.874;2.332;2024-03-23T06:00:47;101247.60;;;26.51;43.13
39275;BME280;24980;48.874;2.332;2024-03-23T06:03:18;101249.16;;;26.53;43.12
39275;BME280;24980;48.874;2.332;2024-03-23T06:05:49;101244.30;;;26.53;43.11
39275;BME280;24980;48.874;2.332;2024-03-23T06:08:20;101251.72;;;26.53;43.11
39275;BME280;24980;48.874;2.332;2024-03-23T06:10:50;101248.48;;;26.53;43.12
39275;BME280;24980;48.874;2.332;2024-03-23T06:13:20;101251.11;;;26.53;43.13
39275;BME280;24980;48.874;2.332;2024-03-23T06:15:50;101254.09;;;26.53;43.17
39275;BME280;24980;48.874;2.332;2024-03-23T06:18:21;101260.55;;;26.53;43.19
39275;BME280;24980;48.874;2.332;2024-03-23T06:20:51;101261.49;;;26.52;43.18
39275;BME280;24980;48.874;2.332;2024-03-23T06:23:22;101273.27;;;26.52;43.18
39275;BME280;24980;48.874;2.332;2024-03-23T06:25:52;101280.37;;;26.52;43.16
39275;BME280;24980;48.874;2.332;2024-03-23T06:28:26;101288.25;;;26.54;43.15
39275;BME280;24980;48.874;2.332;2024-03-23T06:30:53;101288.77;;;26.54;43.13
39275;BME280;24980;48.874;2.332;2024-03-23T06:33:23;101285.70;;;26.54;43.12
39275;BME280;24980;48.874;2.332;2024-03-23T06:35:54;101284.41;;;26.55;43.12
39275;BME280;24980;48.874;2.332;2024-03-23T06:38:24;101284.11;;;26.56;43.10
39275;BME280;24980;48.874;2.332;2024-03-23T06:40:56;101285.47;;;26.56;43.10
39275;BME280;24980;48.874;2.332;2024-03-23T06:43:28;101287.39;;;26.54;43.11
39275;BME280;24980;48.874;2.332;2024-03-23T06:45:55;101293.28;;;26.56;43.09
39275;BME280;24980;48.874;2.332;2024-03-23T06:48:25;101299.20;;;26.58;43.07
39275;BME280;24980;48.874;2.332;2024-03-23T06:50:57;101298.61;;;26.58;43.05
39275;BME280;24980;48.874;2.332;2024-03-23T06:53:26;101297.19;;;26.60;43.01
39275;BME280;24980;48.874;2.332;2024-03-23T06:55:57;101296.52;;;26.59;42.99
39275;BME280;24980;48.874;2.332;2024-03-23T06:58:26;101311.30;;;26.57;42.98
39275;BME280;24980;48.874;2.332;2024-03-23T07:00:56;101318.17;;;26.57;42.97
39275;BME280;24980;48.874;2.332;2024-03-23T07:03:27;101330.50;;;26.58;42.97
39275;BME280;24980;48.874;2.332;2024-03-23T07:06:01;101303.56;;;26.56;42.97
39275;BME280;24980;48.874;2.332;2024-03-23T07:08:28;101317.94;;;26.56;42.94
39275;BME280;24980;48.874;2.332;2024-03-23T07:10:58;101328.48;;;26.56;42.94
39275;BME280;24980;48.874;2.332;2024-03-23T07:13:28;101311.29;;;26.54;42.94
39275;BME280;24980;48.874;2.332;2024-03-23T07:16:02;101310.18;;;26.54;42.91
39275;BME280;24980;48.874;2.332;2024-03-23T07:18:29;101306.88;;;26.50;42.94
39275;BME280;24980;48.874;2.332;2024-03-23T07:21:00;101305.16;;;26.47;42.91
39275;BME280;24980;48.874;2.332;2024-03-23T07:23:31;101312.82;;;26.47;42.89
39275;BME280;24980;48.874;2.332;2024-03-23T07:26:01;101319.44;;;26.47;42.86
39275;BME280;24980;48.874;2.332;2024-03-23T07:28:31;101320.45;;;26.48;42.82
39275;BME280;24980;48.874;2.332;2024-03-23T07:31:09;101319.02;;;26.48;42.80
39275;BME280;24980;48.874;2.332;2024-03-23T07:33:33;101315.70;;;26.48;42.79
39275;BME280;24980;48.874;2.332;2024-03-23T07:36:03;101312.62;;;26.48;42.77
39275;BME280;24980;48.874;2.332;2024-03-23T07:38:34;101319.36;;;26.51;42.76
39275;BME280;24980;48.874;2.332;2024-03-23T07:41:05;101314.20;;;26.52;42.75
39275;BME280;24980;48.874;2.332;2024-03-23T07:43:38;101312.74;;;26.53;42.75
39275;BME280;24980;48.874;2.332;2024-03-23T07:46:06;101310.27;;;26.54;42.77
39275;BME280;24980;48.874;2.332;2024-03-23T07:48:36;101307.32;;;26.55;42.79
39275;BME280;24980;48.874;2.332;2024-03-23T07:51:07;101296.74;;;26.58;42.79
39275;BME280;24980;48.874;2.332;2024-03-23T07:53:37;101305.09;;;26.60;42.78
39275;BME280;24980;48.874;2.332;2024-03-23T07:56:09;101289.36;;;26.63;42.76
39275;BME280;24980;48.874;2.332;2024-03-23T07:58:39;101291.84;;;26.66;42.76
39275;BME280;24980;48.874;2.332;2024-03-23T08:01:11;101291.98;;;26.67;42.75
39275;BME280;24980;48.874;2.332;2024-03-23T08:03:42;101298.91;;;26.68;42.75
39275;BME280;24980;48.874;2.332;2024-03-23T08:06:12;101298.89;;;26.70;42.75
39275;BME280;24980;48.874;2.332;2024-03-23T08:08:42;101300.61;;;26.69;42.75
39275;BME280;24980;48.874;2.332;2024-03-23T08:11:11;101307.99;;;26.69;42.74
39275;BME280;24980;48.874;2.332;2024-03-23T08:13:42;101303.47;;;26.71;42.72
39275;BME280;24980;48.874;2.332;2024-03-23T08:16:11;101304.83;;;26.73;42.68
39275;BME280;24980;48.874;2.332;2024-03-23T08:18:42;101301.60;;;26.73;42.65
39275;BME280;24980;48.874;2.332;2024-03-23T08:21:14;101314.56;;;26.71;42.66
39275;BME280;24980;48.874;2.332;2024-03-23T08:23:43;101314.28;;;26.69;42.67
39275;BME280;24980;48.874;2.332;2024-03-23T08:26:15;101321.27;;;26.68;42.69
39275;BME280;24980;48.874;2.332;2024-03-23T08:28:43;101314.45;;;26.67;42.73
39275;BME280;24980;48.874;2.332;2024-03-23T08:31:14;101319.99;;;26.65;42.78
39275;BME280;24980;48.874;2.332;2024-03-23T08:33:44;101321.09;;;26.62;42.83
39275;BME280;24980;48.874;2.332;2024-03-23T08:36:14;101321.48;;;26.61;42.85
39275;BME280;24980;48.874;2.332;2024-03-23T08:38:44;101329.00;;;26.62;42.84
39275;BME280;24980;48.874;2.332;2024-03-23T08:41:14;101319.69;;;26.58;42.84
39275;BME280;24980;48.874;2.332;2024-03-23T08:43:45;101323.26;;;26.55;42.83
39275;BME280;24980;48.874;2.332;2024-03-23T08:46:16;101324.54;;;26.44;42.86
39275;BME280;24980;48.874;2.332;2024-03-23T08:48:46;101324.51;;;26.31;42.91
39275;BME280;24980;48.874;2.332;2024-03-23T08:51:16;101321.24;;;26.19;42.94
39275;BME280;24980;48.874;2.332;2024-03-23T08:53:46;101326.28;;;26.13;42.95
39275;BME280;24980;48.874;2.332;2024-03-23T08:56:24;101318.83;;;26.11;42.90
39275;BME280;24980;48.874;2.332;2024-03-23T08:58:47;101321.78;;;26.09;42.88
39275;BME280;24980;48.874;2.332;2024-03-23T09:01:17;101316.00;;;26.09;42.82
39275;BME280;24980;48.874;2.332;2024-03-23T09:03:47;101322.62;;;26.10;42.75
39275;BME280;24980;48.874;2.332;2024-03-23T09:06:20;101323.06;;;26.12;42.69
39275;BME280;24980;48.874;2.332;2024-03-23T09:08:48;101320.03;;;26.14;42.64
39275;BME280;24980;48.874;2.332;2024-03-23T09:11:18;101310.71;;;26.18;42.58
39275;BME280;24980;48.874;2.332;2024-03-23T09:13:48;101312.39;;;26.20;42.54
39275;BME280;24980;48.874;2.332;2024-03-23T09:16:18;101309.86;;;26.23;42.47
39275;BME280;24980;48.874;2.332;2024-03-23T09:18:48;101314.98;;;26.28;42.41
39275;BME280;24980;48.874;2.332;2024-03-23T09:21:19;101314.13;;;26.32;42.37
39275;BME280;24980;48.874;2.332;2024-03-23T09:23:49;101318.81;;;26.35;42.31
39275;BME280;24980;48.874;2.332;2024-03-23T09:26:19;101314.33;;;26.41;42.25
39275;BME280;24980;48.874;2.332;2024-03-23T09:28:49;101310.20;;;26.46;42.16
39275;BME280;24980;48.874;2.332;2024-03-23T09:31:19;101304.62;;;26.49;42.09
39275;BME280;24980;48.874;2.332;2024-03-23T09:33:49;101305.86;;;26.49;42.04
39275;BME280;24980;48.874;2.332;2024-03-23T09:36:20;101306.41;;;26.45;41.99
39275;BME280;24980;48.874;2.332;2024-03-23T09:38:52;101307.19;;;26.41;41.98
39275;BME280;24980;48.874;2.332;2024-03-23T09:41:20;101325.86;;;26.39;41.95
39275;BME280;24980;48.874;2.332;2024-03-23T09:43:53;101326.06;;;26.34;41.95
39275;BME280;24980;48.874;2.332;2024-03-23T09:46:21;101312.60;;;26.28;41.93
39275;BME280;24980;48.874;2.332;2024-03-23T09:48:51;101310.55;;;26.25;41.88
39275;BME280;24980;48.874;2.332;2024-03-23T09:51:23;101306.91;;;26.25;41.85
39275;BME280;24980;48.874;2.332;2024-03-23T09:53:51;101299.17;;;26.28;41.80
39275;BME280;24980;48.874;2.332;2024-03-23T09:56:21;101303.35;;;26.34;41.70
39275;BME280;24980;48.874;2.332;2024-03-23T09:59:02;101292.20;;;26.39;41.64
39275;BME280;24980;48.874;2.332;2024-03-23T10:01:22;101294.19;;;26.44;41.56
39275;BME280;24980;48.874;2.332;2024-03-23T10:03:53;101296.52;;;26.49;41.49
39275;BME280;24980;48.874;2.332;2024-03-23T10:06:23;101298.80;;;26.54;41.45
39275;BME280;24980;48.874;2.332;2024-03-23T10:08:53;101279.41;;;26.57;41.39
39275;BME280;24980;48.874;2.332;2024-03-23T10:11:23;101278.84;;;26.62;41.34
39275;BME280;24980;48.874;2.332;2024-03-23T10:13:53;101281.27;;;26.68;41.30
39275;BME280;24980;48.874;2.332;2024-03-23T10:16:24;101273.22;;;26.72;41.28
39275;BME280;24980;48.874;2.332;2024-03-23T10:18:55;101278.89;;;26.77;41.25
39275;BME280;24980;48.874;2.332;2024-03-23T10:21:24;101275.91;;;26.80;41.25
39275;BME280;24980;48.874;2.332;2024-03-23T10:24:00;101271.77;;;26.84;41.19
39275;BME280;24980;48.874;2.332;2024-03-23T10:26:25;101276.20;;;26.89;41.15
39275;BME280;24980;48.874;2.332;2024-03-23T10:28:57;101264.11;;;26.93;41.11
39275;BME280;24980;48.874;2.332;2024-03-23T10:31:26;101268.36;;;26.96;41.08
39275;BME280;24980;48.874;2.332;2024-03-23T10:33:57;101260.53;;;26.97;41.08
39275;BME280;24980;48.874;2.332;2024-03-23T10:36:29;101262.59;;;26.98;41.06
39275;BME280;24980;48.874;2.332;2024-03-23T10:38:59;101254.91;;;27.03;40.98
39275;BME280;24980;48.874;2.332;2024-03-23T10:41:28;101247.62;;;27.04;40.94
39275;BME280;24980;48.874;2.332;2024-03-23T10:43:58;101245.67;;;27.04;40.91
39275;BME280;24980;48.874;2.332;2024-03-23T10:46:30;101237.06;;;27.02;40.89
39275;BME280;24980;48.874;2.332;2024-03-23T10:49:00;101232.23;;;26.98;40.88
39275;BME280;24980;48.874;2.332;2024-03-23T10:51:30;101240.20;;;26.93;40.88
39275;BME280;24980;48.874;2.332;2024-03-23T10:54:03;101220.56;;;26.93;40.86
39275;BME280;24980;48.874;2.332;2024-03-23T10:56:38;101216.65;;;26.96;40.79
39275;BME280;24980;48.874;2.332;2024-03-23T10:59:03;101207.31;;;26.95;40.76
39275;BME280;24980;48.874;2.332;2024-03-23T11:01:33;101208.33;;;26.89;40.76
39275;BME280;24980;48.874;2.332;2024-03-23T11:04:03;101199.34;;;26.84;40.77
39275;BME280;24980;48.874;2.332;2024-03-23T11:06:35;101197.16;;;26.80;40.76
39275;BME280;24980;48.874;2.332;2024-03-23T11:09:03;101193.41;;;26.77;40.71
39275;BME280;24980;48.874;2.332;2024-03-23T11:11:34;101196.05;;;26.74;40.67
39275;BME280;24980;48.874;2.332;2024-03-23T11:14:12;101185.69;;;26.71;40.61
39275;BME280;24980;48.874;2.332;2024-03-23T11:16:36;101190.49;;;26.68;40.56
39275;BME280;24980;48.874;2.332;2024-03-23T11:19:35;101183.44;;;26.65;40.51
39275;BME280;24980;48.874;2.332;2024-03-23T11:21:53;101189.80;;;26.66;40.45
39275;BME280;24980;48.874;2.332;2024-03-23T11:24:14;101186.04;;;26.67;40.35
39275;BME280;24980;48.874;2.332;2024-03-23T11:26:38;101170.23;;;26.69;40.29
39275;BME280;24980;48.874;2.332;2024-03-23T11:29:11;101175.43;;;26.72;40.22
39275;BME280;24980;48.874;2.332;2024-03-23T11:31:38;101165.22;;;26.72;40.17
39275;BME280;24980;48.874;2.332;2024-03-23T11:34:07;101171.82;;;26.74;40.12
39275;BME280;24980;48.874;2.332;2024-03-23T11:36:40;101169.14;;;26.75;40.07
39275;BME280;24980;48.874;2.332;2024-03-23T11:39:15;101163.94;;;26.76;40.06
39275;BME280;24980;48.874;2.332;2024-03-23T11:41:52;101156.50;;;26.75;40.04
39275;BME280;24980;48.874;2.332;2024-03-23T11:44:15;101168.17;;;26.74;40.00
39275;BME280;24980;48.874;2.332;2024-03-23T11:46:39;101153.83;;;26.72;39.96
39275;BME280;24980;48.874;2.332;2024-03-23T11:49:26;101157.80;;;26.70;39.91
39275;BME280;24980;48.874;2.332;2024-03-23T11:51:40;101146.42;;;26.69;39.85
39275;BME280;24980;48.874;2.332;2024-03-23T11:54:11;101141.59;;;26.66;39.81
39275;BME280;24980;48.874;2.332;2024-03-23T11:57:05;101142.08;;;26.64;39.80
39275;BME280;24980;48.874;2.332;2024-03-23T11:59:12;101127.29;;;26.61;39.79
39275;BME280;24980;48.874;2.332;2024-03-23T12:01:43;101134.44;;;26.58;39.79
39275;BME280;24980;48.874;2.332;2024-03-23T12:04:12;101127.31;;;26.54;39.78
39275;BME280;24980;48.874;2.332;2024-03-23T12:06:44;101114.55;;;26.52;39.72
39275;BME280;24980;48.874;2.332;2024-03-23T12:09:14;101119.59;;;26.50;39.62
39275;BME280;24980;48.874;2.332;2024-03-23T12:11:47;101119.59;;;26.50;39.52
39275;BME280;24980;48.874;2.332;2024-03-23T12:14:18;101117.45;;;26.52;39.42
39275;BME280;24980;48.874;2.332;2024-03-23T12:16:46;101105.55;;;26.51;39.38
39275;BME280;24980;48.874;2.332;2024-03-23T12:19:16;101115.94;;;26.51;39.38
39275;BME280;24980;48.874;2.332;2024-03-23T12:21:52;101103.38;;;26.50;39.40
39275;BME280;24980;48.874;2.332;2024-03-23T12:24:18;101107.84;;;26.49;39.39
39275;BME280;24980;48.874;2.332;2024-03-23T12:26:47;101105.07;;;26.47;39.39
39275;BME280;24980;48.874;2.332;2024-03-23T12:29:18;101110.84;;;26.44;39.39
39275;BME280;24980;48.874;2.332;2024-03-23T12:31:49;101102.41;;;26.39;39.41
39275;BME280;24980;48.874;2.332;2024-03-23T12:34:18;101106.33;;;26.36;39.42
39275;BME280;24980;48.874;2.332;2024-03-23T12:36:52;101099.41;;;26.33;39.45
39275;BME280;24980;48.874;2.332;2024-03-23T12:39:19;101093.25;;;26.29;39.49
39275;BME280;24980;48.874;2.332;2024-03-23T12:41:56;101095.51;;;26.27;39.53
39275;BME280;24980;48.874;2.332;2024-03-23T12:44:21;101085.30;;;26.24;39.57
39275;BME280;24980;48.874;2.332;2024-03-23T12:46:49;101084.34;;;26.23;39.61
39275;BME280;24980;48.874;2.332;2024-03-23T12:49:25;101090.50;;;26.23;39.63
39275;BME280;24980;48.874;2.332;2024-03-23T12:51:55;101081.38;;;26.26;39.65
39275;BME280;24980;48.874;2.332;2024-03-23T12:54:21;101080.03;;;26.27;39.67
39275;BME280;24980;48.874;2.332;2024-03-23T12:56:52;101072.78;;;26.29;39.67
39275;BME280;24980;48.874;2.332;2024-03-23T12:59:21;101065.34;;;26.30;39.66
39275;BME280;24980;48.874;2.332;2024-03-23T13:01:52;101063.21;;;26.30;39.66
39275;BME280;24980;48.874;2.332;2024-03-23T13:04:22;101052.47;;;26.29;39.67
39275;BME280;24980;48.874;2.332;2024-03-23T13:06:52;101042.22;;;26.28;39.68
39275;BME280;24980;48.874;2.332;2024-03-23T13:09:22;101045.02;;;26.25;39.68
39275;BME280;24980;48.874;2.332;2024-03-23T13:11:55;101040.83;;;26.23;39.66
39275;BME280;24980;48.874;2.332;2024-03-23T13:14:23;101046.73;;;26.21;39.67
39275;BME280;24980;48.874;2.332;2024-03-23T13:16:53;101040.77;;;26.19;39.67
39275;BME280;24980;48.874;2.332;2024-03-23T13:19:23;101043.91;;;26.16;39.68
39275;BME280;24980;48.874;2.332;2024-03-23T13:21:54;101053.67;;;26.15;39.67
39275;BME280;24980;48.874;2.332;2024-03-23T13:24:25;101053.33;;;26.12;39.67
39275;BME280;24980;48.874;2.332;2024-03-23T13:26:56;101057.31;;;26.09;39.69
39275;BME280;24980;48.874;2.332;2024-03-23T13:29:26;101047.11;;;26.07;39.69
39275;BME280;24980;48.874;2.332;2024-03-23T13:31:56;101048.84;;;26.05;39.73
39275;BME280;24980;48.874;2.332;2024-03-23T13:34:27;101056.62;;;26.04;39.74
39275;BME280;24980;48.874;2.332;2024-03-23T13:36:58;101048.06;;;26.03;39.76
39275;BME280;24980;48.874;2.332;2024-03-23T13:39:28;101057.92;;;26.03;39.75
39275;BME280;24980;48.874;2.332;2024-03-23T13:41:59;101067.54;;;26.01;39.75
39275;BME280;24980;48.874;2.332;2024-03-23T13:44:29;101070.81;;;26.00;39.77
39275;BME280;24980;48.874;2.332;2024-03-23T13:46:59;101064.91;;;26.02;39.76
39275;BME280;24980;48.874;2.332;2024-03-23T13:49:30;101068.90;;;26.01;39.76
39275;BME280;24980;48.874;2.332;2024-03-23T13:52:01;101060.31;;;26.02;39.76
39275;BME280;24980;48.874;2.332;2024-03-23T13:54:30;101060.30;;;26.03;39.75
39275;BME280;24980;48.874;2.332;2024-03-23T13:57:00;101065.74;;;26.02;39.74